Anne Sibum — C4YC2 — position and weather

sailwx.info

Track history (hours):
 
Tides and Currents Weather Stations Pressure Air Temp Water Temp Dewpoint Dewpoint Depression Visibility Wind Speed Wind Dir Waves Ship Positions

Anne Sibum

Last reported at 2016-May-30 00:33 UTC. Time now 2016-May-31 00:14 UTC.
Position N 51°30' W 005°52'.

Length 151 m; draft 8.6 m.

Type: Ship (hazmat cat A). MMSI: 209322000.

Date/timePositionNaut miles runAvg speedWind from/ knotsBaromVisibWave heightAir tempDewpointWater temp
2016-May-30 00:33N 51°30' W 005°52'1313.3
2016-May-29 23:33N 51°16' W 005°52'1313.1
2016-May-29 22:33N 51°03' W 005°52'1313.2
2016-May-29 21:33N 50°50' W 005°52'1313.3
2016-May-29 20:34N 50°37' W 005°54'1312.9
2016-May-29 19:33N 50°24' W 005°53'1413.6
2016-May-29 18:32N 50°10' W 005°53'3310.9
2016-May-29 15:32N 49°56' W 005°07'1313.4
2016-May-29 14:33N 49°58' W 004°47'1413.8
2016-May-29 13:33N 50°00' W 004°26'1413.7
2016-May-29 12:33N 50°03' W 004°05'1313.3
2016-May-29 11:33N 50°05' W 003°45'1313.4
2016-May-29 10:33N 50°08' W 003°24'1413.7
2016-May-29 09:33N 50°11' W 003°03'1514.4
2016-May-29 08:33N 50°13' W 002°41'1515.5
2016-May-29 07:33N 50°16' W 002°17'3416.5
2016-May-29 05:29N 50°22' W 001°24'1715.7
2016-May-29 04:22N 50°25' W 000°57'1214.2
2016-May-29 03:33N 50°27' W 000°40'1313.1
2016-May-29 02:33N 50°30' W 000°19'1312.5
2016-May-29 01:33N 50°32' E 000°00'1312.2
2016-May-29 00:31N 50°35' E 000°19'4214.1
2016-May-28 21:33N 50°58' E 001°15'1515.0
2016-May-28 20:33N 51°07' E 001°33'1313.5
2016-May-28 19:33N 51°17' E 001°48'1312.9
2016-May-28 18:33N 51°27' E 002°00'1312.6
2016-May-28 17:33N 51°37' E 002°14'1312.8
2016-May-28 16:33N 51°46' E 002°28'1313.4
2016-May-28 15:33N 51°56' E 002°43'1312.6
2016-May-28 14:33N 52°02' E 003°01'1413.5
2016-May-28 13:34N 52°03' E 003°23'1312.7
2016-May-28 12:34N 52°07' E 003°42'0 0.1
2016-May-28 11:33N 52°08' E 003°42'0 0.0
2016-May-28 10:27N 52°08' E 003°42'5 6.2
2016-May-28 09:34N 52°05' E 003°50'8 8.5
2016-May-28 08:33N 51°60' E 004°01'9 8.9
2016-May-28 07:33N 51°55' E 004°14'7 7.5
2016-May-28 06:33N 51°53' E 004°25'0 0.0
2016-May-28 05:32N 51°53' E 004°25'0 0.0
2016-May-28 04:31N 51°53' E 004°25'0 0.0
2016-May-28 03:28N 51°53' E 004°25'0 0.0
2016-May-28 02:31N 51°53' E 004°25'0 0.0
2016-May-28 01:30N 51°53' E 004°25'0 0.0
2016-May-28 00:33N 51°53' E 004°25'0 0.0
2016-May-27 23:32N 51°53' E 004°25'0 0.0
2016-May-27 22:32N 51°53' E 004°25'0 0.0
2016-May-27 21:31N 51°53' E 004°25'0 0.0
2016-May-27 20:33N 51°53' E 004°25'0 0.0
2016-May-27 19:33N 51°53' E 004°25'0 0.0
2016-May-27 18:33N 51°53' E 004°25'0 0.0
2016-May-27 17:33N 51°53' E 004°25'0 0.0
2016-May-27 16:32N 51°53' E 004°25'0 0.0
2016-May-27 15:32N 51°53' E 004°25'0 0.0
2016-May-27 14:31N 51°53' E 004°25'0 0.0
2016-May-27 13:31N 51°53' E 004°25'0 0.0
2016-May-27 12:33N 51°53' E 004°25'0 0.0
2016-May-27 11:33N 51°53' E 004°25'0 0.0
2016-May-27 10:33N 51°53' E 004°25'0 0.0
2016-May-27 09:32N 51°53' E 004°25'0 0.0
2016-May-27 08:32N 51°53' E 004°25'0 0.0
2016-May-27 07:31N 51°53' E 004°25'0 0.0
2016-May-27 06:31N 51°53' E 004°25'0 0.0
2016-May-27 05:33N 51°53' E 004°25'0 0.2
2016-May-27 04:32N 51°53' E 004°25'0 0.0
2016-May-27 03:31N 51°53' E 004°25'0 0.0
2016-May-27 02:31N 51°53' E 004°25'0 0.0
2016-May-27 01:31N 51°53' E 004°25'0 0.0
2016-May-27 00:33N 51°53' E 004°25'0 0.0
2016-May-26 23:33N 51°53' E 004°25'0 0.0
2016-May-26 22:32N 51°53' E 004°25'0 0.0
2016-May-26 21:32N 51°53' E 004°25'0 0.0
2016-May-26 20:31N 51°53' E 004°25'0 0.0
2016-May-26 19:31N 51°53' E 004°25'0 0.0
2016-May-26 18:31N 51°53' E 004°25'0 0.0
2016-May-26 17:33N 51°53' E 004°25'0 0.0
2016-May-26 16:33N 51°53' E 004°25'0 0.0
2016-May-26 15:32N 51°53' E 004°25'0 0.0
2016-May-26 14:32N 51°53' E 004°25'0 0.0
2016-May-26 13:28N 51°53' E 004°25'0 0.0
2016-May-26 12:31N 51°53' E 004°25'0 0.1
2016-May-26 11:33N 51°53' E 004°25'8 8.2
2016-May-26 10:33N 51°56' E 004°12'5 5.3
2016-May-26 09:31N 51°57' E 004°04'0 0.0
2016-May-26 08:30N 51°57' E 004°04'0 0.0
2016-May-26 07:33N 51°57' E 004°04'0 0.0
2016-May-26 06:30N 51°57' E 004°04'0 0.0
2016-May-26 05:32N 51°57' E 004°04'0 0.0
2016-May-26 04:29N 51°57' E 004°04'0 0.0
2016-May-26 03:28N 51°57' E 004°04'0 0.0
2016-May-26 02:33N 51°57' E 004°04'1 0.8
2016-May-26 01:33N 51°58' E 004°03'0 0.0
2016-May-26 00:33N 51°58' E 004°03'0 0.0
2016-May-25 23:32N 51°58' E 004°03'0 0.0
2016-May-25 22:32N 51°58' E 004°03'0 0.0
2016-May-25 21:31N 51°58' E 004°03'0 0.0
2016-May-25 20:31N 51°58' E 004°03'0 0.0
2016-May-25 19:31N 51°58' E 004°03'0 0.0
2016-May-25 18:33N 51°58' E 004°03'0 0.0
2016-May-25 17:33N 51°58' E 004°03'2 1.9
2016-May-25 16:32N 51°57' E 004°00'0 0.0
2016-May-25 15:32N 51°57' E 004°00'0 0.0
2016-May-25 14:25N 51°57' E 004°00'0 0.0
2016-May-25 13:31N 51°57' E 004°00'0 0.0
2016-May-25 12:33N 51°57' E 004°00'0 0.0
2016-May-25 11:30N 51°57' E 004°00'1 1.1
2016-May-25 10:33N 51°58' E 004°00'3 2.7
2016-May-25 09:32N 51°57' E 004°04'0 0.0
2016-May-25 08:32N 51°57' E 004°04'0 0.0
2016-May-25 07:31N 51°57' E 004°04'0 0.0
2016-May-25 06:31N 51°57' E 004°04'1 0.9
2016-May-25 05:33N 51°58' E 004°03'0 0.0
2016-May-25 04:32N 51°58' E 004°03'0 0.0
2016-May-25 03:32N 51°58' E 004°03'0 0.0
2016-May-25 02:31N 51°58' E 004°03'0 0.0
2016-May-25 01:31N 51°58' E 004°03'0 0.0
2016-May-25 00:28N 51°58' E 004°03'0 0.0
2016-May-24 23:33N 51°58' E 004°03'0 0.0
2016-May-24 22:33N 51°58' E 004°03'0 0.0
2016-May-24 21:32N 51°58' E 004°03'0 0.0
2016-May-24 20:32N 51°58' E 004°03'0 0.0
2016-May-24 19:31N 51°58' E 004°03'0 0.0
2016-May-24 18:31N 51°58' E 004°03'0 0.0
2016-May-24 17:30N 51°58' E 004°03'0 0.0
2016-May-24 16:33N 51°58' E 004°03'0 0.0
2016-May-24 15:33N 51°58' E 004°03'0 0.0
2016-May-24 14:32N 51°58' E 004°03'0 0.0
2016-May-24 13:32N 51°58' E 004°03'0 0.0
2016-May-24 12:31N 51°58' E 004°03'0 0.0
2016-May-24 11:31N 51°58' E 004°03'0 0.0
2016-May-24 10:30N 51°58' E 004°03'0 0.4
2016-May-24 09:32N 51°58' E 004°03'0 0.0
2016-May-24 08:31N 51°58' E 004°03'0 0.0
2016-May-24 07:31N 51°58' E 004°03'0 0.0
2016-May-24 06:33N 51°58' E 004°03'0 0.2
2016-May-24 05:33N 51°58' E 004°03'7 7.0
2016-May-24 04:34N 51°55' E 004°14'8 7.6
2016-May-24 03:33N 51°54' E 004°26'0 0.0
2016-May-24 02:34N 51°54' E 004°26'0 0.0
2016-May-24 01:33N 51°54' E 004°26'0 0.0
2016-May-24 00:33N 51°54' E 004°26'0 0.0
2016-May-23 23:33N 51°54' E 004°26'1 1.1
2016-May-23 22:33N 51°53' E 004°24'0 0.4
2016-May-23 21:33N 51°53' E 004°25'0 0.0
2016-May-23 20:33N 51°53' E 004°25'0 0.0
2016-May-23 19:33N 51°53' E 004°25'0 0.0
2016-May-23 18:33N 51°53' E 004°25'0 0.0
2016-May-23 17:33N 51°53' E 004°25'0 0.0
2016-May-23 16:33N 51°53' E 004°25'0 0.0
2016-May-23 15:33N 51°53' E 004°25'0 0.0
2016-May-23 14:33N 51°53' E 004°25'0 0.0
2016-May-23 13:33N 51°53' E 004°25'0 0.0
2016-May-23 12:33N 51°53' E 004°25'0 0.0
2016-May-23 11:33N 51°53' E 004°25'7 6.5
2016-May-23 10:33N 51°55' E 004°15'1111.4
2016-May-23 09:33N 52°00' E 003°58'1313.0
2016-May-23 08:32N 51°57' E 003°37'4313.9
2016-May-23 05:27N 51°41' E 002°32'1617.7
2016-May-23 04:33N 51°29' E 002°16'1717.3
2016-May-23 03:33N 51°14' E 002°03'1818.5
2016-May-23 02:34N 51°03' E 001°40'1918.2
2016-May-23 01:32N 50°48' E 001°22'5117.2
2016-May-22 22:33N 50°22' E 000°12'1919.1
2016-May-22 21:33N 50°19' W 000°17'2020.1
2016-May-22 20:33N 50°17' W 000°48'2020.5
2016-May-22 19:33N 50°14' W 001°20'2019.8
2016-May-22 18:33N 50°13' W 001°51'1918.3
2016-May-22 17:31N 50°11' W 002°20'1717.2
2016-May-22 16:33N 50°09' W 002°46'1716.5
2016-May-22 15:30N 50°06' W 003°13'1516.1
2016-May-22 14:33N 50°04' W 003°36'1615.9
2016-May-22 13:34N 50°02' W 004°01'1616.3
2016-May-22 12:33N 49°59' W 004°26'1616.3
2016-May-22 11:34N 49°57' W 004°51'1715.6
2016-May-22 10:27N 49°55' W 005°18'  
Track history (hours):
 
Tides and Currents Weather Stations Pressure Air Temp Water Temp Dewpoint Dewpoint Depression Visibility Wind Speed Wind Dir Waves Ship Positions

Anne Sibum

Last reported at 2016-May-30 00:33 UTC. Time now 2016-May-31 00:14 UTC.
Position N 51°30' W 005°52'.

Length 151 m; draft 8.6 m.

Type: Ship (hazmat cat A). MMSI: 209322000.

Date/timePositionNaut miles runAvg speedWind from/ knotsBaromVisibWave heightAir tempDewpointWater temp
2016-May-30 00:33N 51°30' W 005°52'1313.3
2016-May-29 23:33N 51°16' W 005°52'1313.1
2016-May-29 22:33N 51°03' W 005°52'1313.2
2016-May-29 21:33N 50°50' W 005°52'1313.3
2016-May-29 20:34N 50°37' W 005°54'1312.9
2016-May-29 19:33N 50°24' W 005°53'1413.6
2016-May-29 18:32N 50°10' W 005°53'3310.9
2016-May-29 15:32N 49°56' W 005°07'1313.4
2016-May-29 14:33N 49°58' W 004°47'1413.8
2016-May-29 13:33N 50°00' W 004°26'1413.7
2016-May-29 12:33N 50°03' W 004°05'1313.3
2016-May-29 11:33N 50°05' W 003°45'1313.4
2016-May-29 10:33N 50°08' W 003°24'1413.7
2016-May-29 09:33N 50°11' W 003°03'1514.4
2016-May-29 08:33N 50°13' W 002°41'1515.5
2016-May-29 07:33N 50°16' W 002°17'3416.5
2016-May-29 05:29N 50°22' W 001°24'1715.7
2016-May-29 04:22N 50°25' W 000°57'1214.2
2016-May-29 03:33N 50°27' W 000°40'1313.1
2016-May-29 02:33N 50°30' W 000°19'1312.5
2016-May-29 01:33N 50°32' E 000°00'1312.2
2016-May-29 00:31N 50°35' E 000°19'4214.1
2016-May-28 21:33N 50°58' E 001°15'1515.0
2016-May-28 20:33N 51°07' E 001°33'1313.5
2016-May-28 19:33N 51°17' E 001°48'1312.9
2016-May-28 18:33N 51°27' E 002°00'1312.6
2016-May-28 17:33N 51°37' E 002°14'1312.8
2016-May-28 16:33N 51°46' E 002°28'1313.4
2016-May-28 15:33N 51°56' E 002°43'1312.6
2016-May-28 14:33N 52°02' E 003°01'1413.5
2016-May-28 13:34N 52°03' E 003°23'1312.7
2016-May-28 12:34N 52°07' E 003°42'0 0.1
2016-May-28 11:33N 52°08' E 003°42'0 0.0
2016-May-28 10:27N 52°08' E 003°42'5 6.2
2016-May-28 09:34N 52°05' E 003°50'8 8.5
2016-May-28 08:33N 51°60' E 004°01'9 8.9
2016-May-28 07:33N 51°55' E 004°14'7 7.5
2016-May-28 06:33N 51°53' E 004°25'0 0.0
2016-May-28 05:32N 51°53' E 004°25'0 0.0
2016-May-28 04:31N 51°53' E 004°25'0 0.0
2016-May-28 03:28N 51°53' E 004°25'0 0.0
2016-May-28 02:31N 51°53' E 004°25'0 0.0
2016-May-28 01:30N 51°53' E 004°25'0 0.0
2016-May-28 00:33N 51°53' E 004°25'0 0.0
2016-May-27 23:32N 51°53' E 004°25'0 0.0
2016-May-27 22:32N 51°53' E 004°25'0 0.0
2016-May-27 21:31N 51°53' E 004°25'0 0.0
2016-May-27 20:33N 51°53' E 004°25'0 0.0
2016-May-27 19:33N 51°53' E 004°25'0 0.0
2016-May-27 18:33N 51°53' E 004°25'0 0.0
2016-May-27 17:33N 51°53' E 004°25'0 0.0
2016-May-27 16:32N 51°53' E 004°25'0 0.0
2016-May-27 15:32N 51°53' E 004°25'0 0.0
2016-May-27 14:31N 51°53' E 004°25'0 0.0
2016-May-27 13:31N 51°53' E 004°25'0 0.0
2016-May-27 12:33N 51°53' E 004°25'0 0.0
2016-May-27 11:33N 51°53' E 004°25'0 0.0
2016-May-27 10:33N 51°53' E 004°25'0 0.0
2016-May-27 09:32N 51°53' E 004°25'0 0.0
2016-May-27 08:32N 51°53' E 004°25'0 0.0
2016-May-27 07:31N 51°53' E 004°25'0 0.0
2016-May-27 06:31N 51°53' E 004°25'0 0.0
2016-May-27 05:33N 51°53' E 004°25'0 0.2
2016-May-27 04:32N 51°53' E 004°25'0 0.0
2016-May-27 03:31N 51°53' E 004°25'0 0.0
2016-May-27 02:31N 51°53' E 004°25'0 0.0
2016-May-27 01:31N 51°53' E 004°25'0 0.0
2016-May-27 00:33N 51°53' E 004°25'0 0.0
2016-May-26 23:33N 51°53' E 004°25'0 0.0
2016-May-26 22:32N 51°53' E 004°25'0 0.0
2016-May-26 21:32N 51°53' E 004°25'0 0.0
2016-May-26 20:31N 51°53' E 004°25'0 0.0
2016-May-26 19:31N 51°53' E 004°25'0 0.0
2016-May-26 18:31N 51°53' E 004°25'0 0.0
2016-May-26 17:33N 51°53' E 004°25'0 0.0
2016-May-26 16:33N 51°53' E 004°25'0 0.0
2016-May-26 15:32N 51°53' E 004°25'0 0.0
2016-May-26 14:32N 51°53' E 004°25'0 0.0
2016-May-26 13:28N 51°53' E 004°25'0 0.0
2016-May-26 12:31N 51°53' E 004°25'0 0.1
2016-May-26 11:33N 51°53' E 004°25'8 8.2
2016-May-26 10:33N 51°56' E 004°12'5 5.3
2016-May-26 09:31N 51°57' E 004°04'0 0.0
2016-May-26 08:30N 51°57' E 004°04'0 0.0
2016-May-26 07:33N 51°57' E 004°04'0 0.0
2016-May-26 06:30N 51°57' E 004°04'0 0.0
2016-May-26 05:32N 51°57' E 004°04'0 0.0
2016-May-26 04:29N 51°57' E 004°04'0 0.0
2016-May-26 03:28N 51°57' E 004°04'0 0.0
2016-May-26 02:33N 51°57' E 004°04'1 0.8
2016-May-26 01:33N 51°58' E 004°03'0 0.0
2016-May-26 00:33N 51°58' E 004°03'0 0.0
2016-May-25 23:32N 51°58' E 004°03'0 0.0
2016-May-25 22:32N 51°58' E 004°03'0 0.0
2016-May-25 21:31N 51°58' E 004°03'0 0.0
2016-May-25 20:31N 51°58' E 004°03'0 0.0
2016-May-25 19:31N 51°58' E 004°03'0 0.0
2016-May-25 18:33N 51°58' E 004°03'0 0.0
2016-May-25 17:33N 51°58' E 004°03'2 1.9
2016-May-25 16:32N 51°57' E 004°00'0 0.0
2016-May-25 15:32N 51°57' E 004°00'0 0.0
2016-May-25 14:25N 51°57' E 004°00'0 0.0
2016-May-25 13:31N 51°57' E 004°00'0 0.0
2016-May-25 12:33N 51°57' E 004°00'0 0.0
2016-May-25 11:30N 51°57' E 004°00'1 1.1
2016-May-25 10:33N 51°58' E 004°00'3 2.7
2016-May-25 09:32N 51°57' E 004°04'0 0.0
2016-May-25 08:32N 51°57' E 004°04'0 0.0
2016-May-25 07:31N 51°57' E 004°04'0 0.0
2016-May-25 06:31N 51°57' E 004°04'1 0.9
2016-May-25 05:33N 51°58' E 004°03'0 0.0
2016-May-25 04:32N 51°58' E 004°03'0 0.0
2016-May-25 03:32N 51°58' E 004°03'0 0.0
2016-May-25 02:31N 51°58' E 004°03'0 0.0
2016-May-25 01:31N 51°58' E 004°03'0 0.0
2016-May-25 00:28N 51°58' E 004°03'0 0.0
2016-May-24 23:33N 51°58' E 004°03'0 0.0
2016-May-24 22:33N 51°58' E 004°03'0 0.0
2016-May-24 21:32N 51°58' E 004°03'0 0.0
2016-May-24 20:32N 51°58' E 004°03'0 0.0
2016-May-24 19:31N 51°58' E 004°03'0 0.0
2016-May-24 18:31N 51°58' E 004°03'0 0.0
2016-May-24 17:30N 51°58' E 004°03'0 0.0
2016-May-24 16:33N 51°58' E 004°03'0 0.0
2016-May-24 15:33N 51°58' E 004°03'0 0.0
2016-May-24 14:32N 51°58' E 004°03'0 0.0
2016-May-24 13:32N 51°58' E 004°03'0 0.0
2016-May-24 12:31N 51°58' E 004°03'0 0.0
2016-May-24 11:31N 51°58' E 004°03'0 0.0
2016-May-24 10:30N 51°58' E 004°03'0 0.4
2016-May-24 09:32N 51°58' E 004°03'0 0.0
2016-May-24 08:31N 51°58' E 004°03'0 0.0
2016-May-24 07:31N 51°58' E 004°03'0 0.0
2016-May-24 06:33N 51°58' E 004°03'0 0.2
2016-May-24 05:33N 51°58' E 004°03'7 7.0
2016-May-24 04:34N 51°55' E 004°14'8 7.6
2016-May-24 03:33N 51°54' E 004°26'0 0.0
2016-May-24 02:34N 51°54' E 004°26'0 0.0
2016-May-24 01:33N 51°54' E 004°26'0 0.0
2016-May-24 00:33N 51°54' E 004°26'0 0.0
2016-May-23 23:33N 51°54' E 004°26'1 1.1
2016-May-23 22:33N 51°53' E 004°24'0 0.4
2016-May-23 21:33N 51°53' E 004°25'0 0.0
2016-May-23 20:33N 51°53' E 004°25'0 0.0
2016-May-23 19:33N 51°53' E 004°25'0 0.0
2016-May-23 18:33N 51°53' E 004°25'0 0.0
2016-May-23 17:33N 51°53' E 004°25'0 0.0
2016-May-23 16:33N 51°53' E 004°25'0 0.0
2016-May-23 15:33N 51°53' E 004°25'0 0.0
2016-May-23 14:33N 51°53' E 004°25'0 0.0
2016-May-23 13:33N 51°53' E 004°25'0 0.0
2016-May-23 12:33N 51°53' E 004°25'0 0.0
2016-May-23 11:33N 51°53' E 004°25'7 6.5
2016-May-23 10:33N 51°55' E 004°15'1111.4
2016-May-23 09:33N 52°00' E 003°58'1313.0
2016-May-23 08:32N 51°57' E 003°37'4313.9
2016-May-23 05:27N 51°41' E 002°32'1617.7
2016-May-23 04:33N 51°29' E 002°16'1717.3
2016-May-23 03:33N 51°14' E 002°03'1818.5
2016-May-23 02:34N 51°03' E 001°40'1918.2
2016-May-23 01:32N 50°48' E 001°22'5117.2
2016-May-22 22:33N 50°22' E 000°12'1919.1
2016-May-22 21:33N 50°19' W 000°17'2020.1
2016-May-22 20:33N 50°17' W 000°48'2020.5
2016-May-22 19:33N 50°14' W 001°20'2019.8
2016-May-22 18:33N 50°13' W 001°51'1918.3
2016-May-22 17:31N 50°11' W 002°20'1717.2
2016-May-22 16:33N 50°09' W 002°46'1716.5
2016-May-22 15:30N 50°06' W 003°13'1516.1
2016-May-22 14:33N 50°04' W 003°36'1615.9
2016-May-22 13:34N 50°02' W 004°01'1616.3
2016-May-22 12:33N 49°59' W 004°26'1616.3
2016-May-22 11:34N 49°57' W 004°51'1715.6
2016-May-22 10:27N 49°55' W 005°18'  

Dump ship's entire track history